createdAt,value
2024-04-17T00:00:00.798Z,4.81
2024-04-17T00:02:28.210Z,4.80
2024-04-17T00:04:55.695Z,4.78
2024-04-17T00:07:23.286Z,4.76
2024-04-17T00:09:50.735Z,4.73
2024-04-17T00:12:20.745Z,4.71
2024-04-17T00:14:48.153Z,4.68
2024-04-17T00:17:15.623Z,4.66
2024-04-17T00:19:43.186Z,4.64
2024-04-17T00:22:10.728Z,4.62
2024-04-17T00:24:38.312Z,4.62
2024-04-17T00:27:05.744Z,4.60
2024-04-17T00:29:33.234Z,4.60
2024-04-17T00:32:00.715Z,4.58
2024-04-17T00:34:28.267Z,4.58
2024-04-17T00:36:55.788Z,4.58
2024-04-17T00:39:23.317Z,4.58
2024-04-17T00:41:50.772Z,4.59
2024-04-17T00:44:18.213Z,4.59
2024-04-17T00:46:46.044Z,4.58
2024-04-17T00:49:14.618Z,4.57
2024-04-17T00:51:43.755Z,4.55
2024-04-17T00:54:12.794Z,4.52
2024-04-17T00:56:41.645Z,4.51
2024-04-17T00:59:10.224Z,4.48
2024-04-17T01:01:38.969Z,4.49
2024-04-17T01:04:06.575Z,4.47
2024-04-17T01:06:33.990Z,4.47
2024-04-17T01:09:01.521Z,4.45
2024-04-17T01:11:38.795Z,4.46
2024-04-17T01:14:06.374Z,4.45
2024-04-17T01:16:38.234Z,4.46
2024-04-17T01:19:06.602Z,4.45
2024-04-17T01:21:34.888Z,4.45
2024-04-17T01:24:02.581Z,4.46
2024-04-17T01:26:30.143Z,4.46
2024-04-17T01:28:57.748Z,4.47
2024-04-17T01:31:25.797Z,4.48
2024-04-17T01:33:53.367Z,4.52
2024-04-17T01:36:21.799Z,4.55
2024-04-17T01:38:49.373Z,4.57
2024-04-17T01:41:17.227Z,4.59
2024-04-17T01:43:44.777Z,4.61
2024-04-17T01:46:12.512Z,4.63
2024-04-17T01:48:40.040Z,4.66
2024-04-17T01:51:07.602Z,4.67
2024-04-17T01:53:35.067Z,4.72
2024-04-17T01:56:02.598Z,4.76
2024-04-17T01:58:30.207Z,4.81
2024-04-17T02:00:58.033Z,4.86
2024-04-17T02:03:25.586Z,4.91
2024-04-17T02:05:53.651Z,4.97
2024-04-17T02:08:21.206Z,5.03
2024-04-17T02:10:48.755Z,5.10
2024-04-17T02:13:16.345Z,5.16
2024-04-17T02:15:43.846Z,5.22
2024-04-17T02:18:11.571Z,5.26
2024-04-17T02:20:39.551Z,5.32
2024-04-17T02:23:07.114Z,5.35
2024-04-17T02:25:34.695Z,5.38
2024-04-17T02:28:02.188Z,5.39
2024-04-17T02:30:31.068Z,5.42
2024-04-17T02:32:58.782Z,5.45
2024-04-17T02:35:26.359Z,5.46
2024-04-17T02:37:53.889Z,5.46
2024-04-17T02:40:21.517Z,5.47
2024-04-17T02:42:49.053Z,5.49
2024-04-17T02:45:16.614Z,5.49
2024-04-17T02:47:44.705Z,5.48
2024-04-17T02:50:12.318Z,5.49
2024-04-17T02:52:41.216Z,5.50
2024-04-17T02:55:09.034Z,5.51
2024-04-17T02:57:36.638Z,5.53
2024-04-17T03:00:07.407Z,5.53
2024-04-17T03:02:34.843Z,5.57
2024-04-17T03:05:02.507Z,5.58
2024-04-17T03:07:30.130Z,5.59
2024-04-17T03:09:57.654Z,5.60
2024-04-17T03:12:25.074Z,5.63
2024-04-17T03:14:52.599Z,5.63
2024-04-17T03:17:20.072Z,5.64
2024-04-17T03:19:47.668Z,5.64
2024-04-17T03:22:15.115Z,5.65
2024-04-17T03:24:42.647Z,5.65
2024-04-17T03:27:10.068Z,5.63
2024-04-17T03:29:37.630Z,5.63
2024-04-17T03:32:05.486Z,5.62
2024-04-17T03:34:33.174Z,5.62
2024-04-17T03:37:00.688Z,5.60
2024-04-17T03:39:30.601Z,5.59
2024-04-17T03:41:58.082Z,5.56
2024-04-17T03:44:25.547Z,5.56
2024-04-17T03:46:53.107Z,5.57
2024-04-17T03:49:20.661Z,5.58
2024-04-17T03:51:48.096Z,5.59
2024-04-17T03:54:15.562Z,5.59
2024-04-17T03:56:43.061Z,5.58
2024-04-17T03:59:11.150Z,5.58
2024-04-17T04:01:38.571Z,5.60
2024-04-17T04:04:06.347Z,5.60
2024-04-17T04:06:33.928Z,5.59
2024-04-17T04:09:02.044Z,5.62
2024-04-17T04:11:29.443Z,5.65
2024-04-17T04:13:57.017Z,5.66
2024-04-17T04:16:24.606Z,5.68
2024-04-17T04:18:52.120Z,5.69
2024-04-17T04:21:19.600Z,5.69
2024-04-17T04:23:49.005Z,5.68
2024-04-17T04:26:16.493Z,5.68
2024-04-17T04:28:48.011Z,5.67
2024-04-17T04:31:15.509Z,5.66
2024-04-17T04:33:43.034Z,5.65
2024-04-17T04:36:10.386Z,5.63
2024-04-17T04:38:37.835Z,5.64
2024-04-17T04:41:05.495Z,5.64
2024-04-17T04:43:33.098Z,5.64
2024-04-17T04:46:00.639Z,5.65
2024-04-17T04:48:28.109Z,5.65
2024-04-17T04:50:55.632Z,5.66
2024-04-17T04:53:23.094Z,5.66
2024-04-17T04:56:03.557Z,5.66
2024-04-17T04:58:31.320Z,5.70
2024-04-17T05:00:59.039Z,5.71
2024-04-17T05:03:26.671Z,5.73
2024-04-17T05:05:54.389Z,5.74
2024-04-17T05:08:21.966Z,5.74
2024-04-17T05:10:49.499Z,5.74
2024-04-17T05:13:18.411Z,5.73
2024-04-17T05:15:46.124Z,5.74
2024-04-17T05:18:13.717Z,5.75
2024-04-17T05:20:41.212Z,5.77
2024-04-17T05:23:08.664Z,5.80
2024-04-17T05:25:37.080Z,5.84
2024-04-17T05:28:06.060Z,5.88
2024-04-17T05:30:34.746Z,5.89
2024-04-17T05:33:02.911Z,5.94
2024-04-17T05:35:32.034Z,5.96
2024-04-17T05:37:59.594Z,5.97
2024-04-17T05:40:27.148Z,5.99
2024-04-17T05:42:56.902Z,6.01
2024-04-17T05:45:24.812Z,6.02
2024-04-17T05:47:52.402Z,6.04
2024-04-17T05:50:19.878Z,6.04
2024-04-17T05:52:48.964Z,6.04
2024-04-17T05:55:16.491Z,6.04
2024-04-17T05:57:44.058Z,6.02
2024-04-17T06:00:12.428Z,6.03
2024-04-17T06:02:39.980Z,6.02
2024-04-17T06:05:07.708Z,6.03
2024-04-17T06:07:35.219Z,6.04
2024-04-17T06:10:02.997Z,6.05
2024-04-17T06:12:30.480Z,6.07
2024-04-17T06:14:57.984Z,6.11
2024-04-17T06:17:26.384Z,6.11
2024-04-17T06:19:54.871Z,6.15
2024-04-17T06:22:22.755Z,6.17
2024-04-17T06:24:50.405Z,6.22
2024-04-17T06:27:18.115Z,6.25
2024-04-17T06:29:45.621Z,6.28
2024-04-17T06:32:13.173Z,6.32
2024-04-17T06:34:43.686Z,6.35
2024-04-17T06:37:11.227Z,6.34
2024-04-17T06:39:38.908Z,6.37
2024-04-17T06:42:06.647Z,6.37
2024-04-17T06:44:35.179Z,6.38
2024-04-17T06:47:03.330Z,6.40
2024-04-17T06:49:31.597Z,6.42
2024-04-17T06:51:59.341Z,6.42
2024-04-17T06:54:27.065Z,6.39
2024-04-17T06:56:57.249Z,6.33
2024-04-17T06:59:27.708Z,6.25
2024-04-17T07:01:56.994Z,6.19
2024-04-17T07:04:24.877Z,6.10
2024-04-17T07:06:52.687Z,6.03
2024-04-17T07:09:20.160Z,5.98
2024-04-17T07:11:48.502Z,5.94
2024-04-17T07:14:15.950Z,5.88
2024-04-17T07:16:43.428Z,5.89
2024-04-17T07:19:10.999Z,5.92
2024-04-17T07:21:41.334Z,5.93
2024-04-17T07:24:08.848Z,5.89
2024-04-17T07:26:36.347Z,5.86
2024-04-17T07:29:03.854Z,5.84
2024-04-17T07:31:31.335Z,5.84
2024-04-17T07:33:58.869Z,5.85
2024-04-17T07:36:26.311Z,5.89
2024-04-17T07:38:53.840Z,5.90
2024-04-17T07:41:21.497Z,5.95
2024-04-17T07:43:49.022Z,6.00
2024-04-17T07:46:16.691Z,6.02
2024-04-17T07:48:44.827Z,6.07
2024-04-17T07:51:12.450Z,6.09
2024-04-17T07:53:40.165Z,6.12
2024-04-17T07:56:07.801Z,6.08
2024-04-17T07:58:35.599Z,6.07
2024-04-17T08:01:03.108Z,6.07
2024-04-17T08:03:30.604Z,6.10
2024-04-17T08:05:58.113Z,6.11
2024-04-17T08:08:26.013Z,6.15
2024-04-17T08:10:53.794Z,6.19
2024-04-17T08:13:21.210Z,6.21
2024-04-17T08:15:58.488Z,6.24
2024-04-17T08:18:25.960Z,6.25
2024-04-17T08:20:57.996Z,6.29
2024-04-17T08:23:29.190Z,6.32
2024-04-17T08:26:00.014Z,6.39
2024-04-17T08:28:27.628Z,6.47
2024-04-17T08:30:55.228Z,6.53
2024-04-17T08:33:22.932Z,6.60
2024-04-17T08:35:50.538Z,6.67
2024-04-17T08:38:18.159Z,6.74
2024-04-17T08:40:47.189Z,6.82
2024-04-17T08:43:27.450Z,6.86
2024-04-17T08:45:56.413Z,6.88
2024-04-17T08:48:27.281Z,6.90
2024-04-17T08:50:56.994Z,6.97
2024-04-17T08:53:27.511Z,7.05
2024-04-17T08:55:56.327Z,7.14
2024-04-17T09:01:37.067Z,7.37
2024-04-17T09:04:05.198Z,7.46
2024-04-17T09:06:34.143Z,7.54
2024-04-17T09:09:02.598Z,7.61
2024-04-17T09:11:31.478Z,7.70
2024-04-17T09:13:59.023Z,7.80
2024-04-17T09:16:26.584Z,7.93
2024-04-17T09:18:54.147Z,8.00
2024-04-17T09:21:24.098Z,8.11
2024-04-17T09:23:54.073Z,8.22
2024-04-17T09:26:23.420Z,8.29
2024-04-17T09:28:52.071Z,8.35
2024-04-17T09:31:19.808Z,8.43
2024-04-17T09:33:50.237Z,8.47
2024-04-17T09:36:18.517Z,8.55
2024-04-17T09:38:47.627Z,8.65
2024-04-17T09:41:16.132Z,8.72
2024-04-17T09:43:44.187Z,8.75
2024-04-17T09:46:17.776Z,8.79
2024-04-17T09:48:54.777Z,8.89
2024-04-17T09:51:27.220Z,9.03
2024-04-17T09:54:03.926Z,9.15
2024-04-17T09:56:33.862Z,9.17
2024-04-17T09:59:08.084Z,9.29
2024-04-17T10:01:39.283Z,9.34
2024-04-17T10:04:12.853Z,9.44
2024-04-17T10:06:45.675Z,9.57
2024-04-17T10:09:14.765Z,9.62
2024-04-17T10:11:42.978Z,9.64
2024-04-17T10:14:13.351Z,9.69
2024-04-17T10:16:41.214Z,9.72
2024-04-17T10:19:10.246Z,9.79
2024-04-17T10:21:38.214Z,9.90
2024-04-17T10:24:10.711Z,9.99
2024-04-17T10:26:52.493Z,10.02
2024-04-17T10:29:25.464Z,10.06
2024-04-17T10:32:20.987Z,9.95
2024-04-17T10:34:50.574Z,9.87
2024-04-17T10:37:20.289Z,9.95
2024-04-17T10:39:48.325Z,10.02
2024-04-17T10:42:18.919Z,10.13
2024-04-17T10:44:47.354Z,10.29
2024-04-17T10:47:22.424Z,10.42
2024-04-17T10:50:04.318Z,10.46
2024-04-17T10:52:33.412Z,10.36
2024-04-17T10:55:06.695Z,10.27
2024-04-17T10:57:34.285Z,10.15
2024-04-17T11:00:02.137Z,10.21
2024-04-17T11:02:31.095Z,10.30
2024-04-17T11:04:58.621Z,10.22
2024-04-17T11:07:26.392Z,10.19
2024-04-17T11:09:53.876Z,10.07
2024-04-17T11:12:21.569Z,9.97
2024-04-17T11:15:00.078Z,9.87
2024-04-17T11:17:28.204Z,9.80
2024-04-17T11:19:56.357Z,9.93
2024-04-17T11:22:26.890Z,10.03
2024-04-17T11:25:01.082Z,9.95
2024-04-17T11:27:28.664Z,9.97
2024-04-17T11:29:59.008Z,10.10
2024-04-17T11:32:29.216Z,10.15
2024-04-17T11:34:57.557Z,10.19
2024-04-17T11:37:26.264Z,10.20
2024-04-17T11:39:53.829Z,10.26
2024-04-17T11:42:21.388Z,10.22
2024-04-17T11:44:49.042Z,10.10
2024-04-17T11:47:19.174Z,10.07
2024-04-17T11:49:46.693Z,10.14
2024-04-17T11:52:14.722Z,10.25
2024-04-17T11:54:42.627Z,10.42
2024-04-17T11:57:13.480Z,10.51
2024-04-17T11:59:43.774Z,10.46
2024-04-17T12:02:12.034Z,10.47
2024-04-17T12:04:39.696Z,10.54
2024-04-17T12:07:07.316Z,10.56
2024-04-17T12:09:34.737Z,10.53
2024-04-17T12:12:03.038Z,10.61
2024-04-17T12:14:30.480Z,10.61
2024-04-17T12:16:57.972Z,10.56
2024-04-17T12:19:29.369Z,10.59
2024-04-17T12:21:57.330Z,10.66
2024-04-17T12:24:46.105Z,10.71
2024-04-17T12:27:13.958Z,10.68
2024-04-17T12:29:43.008Z,10.70
2024-04-17T12:32:10.455Z,10.80
2024-04-17T12:34:39.579Z,10.82
2024-04-17T12:37:08.216Z,10.80
2024-04-17T12:39:35.633Z,10.73
2024-04-17T12:42:03.207Z,10.72
2024-04-17T12:44:31.449Z,10.74
2024-04-17T12:46:58.999Z,10.75
2024-04-17T12:49:26.565Z,10.74
2024-04-17T12:51:57.226Z,10.79
2024-04-17T12:54:24.923Z,10.77
2024-04-17T12:56:52.568Z,10.77
2024-04-17T12:59:20.601Z,10.74
2024-04-17T13:01:48.152Z,10.68
2024-04-17T13:04:17.295Z,10.66
2024-04-17T13:06:46.007Z,10.68
2024-04-17T13:09:16.636Z,10.73
2024-04-17T13:11:44.110Z,10.81
2024-04-17T13:14:12.427Z,10.83
2024-04-17T13:16:40.002Z,10.85
2024-04-17T13:19:07.462Z,10.87
2024-04-17T13:21:35.569Z,10.92
2024-04-17T13:24:03.799Z,10.92
2024-04-17T13:26:31.923Z,10.91
2024-04-17T13:28:59.660Z,10.86
2024-04-17T13:31:27.350Z,10.83
2024-04-17T13:33:56.175Z,10.83
2024-04-17T13:36:23.751Z,10.87
2024-04-17T13:38:51.322Z,10.77
2024-04-17T13:41:19.993Z,10.76
2024-04-17T13:43:49.344Z,10.72
2024-04-17T13:46:18.046Z,10.64
2024-04-17T13:48:45.748Z,10.62
2024-04-17T13:51:13.836Z,10.62
2024-04-17T13:53:42.727Z,10.68
2024-04-17T13:56:18.178Z,10.75
2024-04-17T13:58:46.247Z,10.87
2024-04-17T14:01:13.721Z,10.91
2024-04-17T14:03:45.487Z,10.96
2024-04-17T14:06:14.362Z,10.91
2024-04-17T14:08:42.397Z,10.84
2024-04-17T14:11:09.974Z,10.75
2024-04-17T14:13:40.569Z,10.74
2024-04-17T14:16:08.365Z,10.80
2024-04-17T14:18:36.469Z,10.76
2024-04-17T14:21:08.080Z,10.70
2024-04-17T14:23:36.068Z,10.66
2024-04-17T14:26:03.845Z,10.65
2024-04-17T14:28:32.402Z,10.68
2024-04-17T14:31:00.951Z,10.69
2024-04-17T14:33:32.232Z,10.66
2024-04-17T14:36:09.293Z,10.58
2024-04-17T14:38:38.198Z,10.51
2024-04-17T14:41:07.054Z,10.46
2024-04-17T14:43:36.871Z,10.38
2024-04-17T14:46:05.535Z,10.38
2024-04-17T14:48:36.901Z,10.39
2024-04-17T14:51:09.759Z,10.31
2024-04-17T14:53:38.622Z,10.31
2024-04-17T14:56:09.445Z,10.26
2024-04-17T14:58:38.490Z,10.24
2024-04-17T15:01:08.436Z,10.23
2024-04-17T15:03:37.292Z,10.19
2024-04-17T15:06:06.525Z,10.13
2024-04-17T15:08:34.797Z,10.12
2024-04-17T15:11:12.784Z,10.12
2024-04-17T15:13:43.164Z,10.08
2024-04-17T15:16:12.960Z,10.11
2024-04-17T15:18:41.165Z,10.09
2024-04-17T15:21:13.744Z,9.97
2024-04-17T15:23:43.052Z,9.87
2024-04-17T15:26:12.095Z,9.83
2024-04-17T15:28:41.023Z,9.73
2024-04-17T15:31:19.970Z,9.67
2024-04-17T15:33:53.275Z,9.61
2024-04-17T15:36:23.193Z,9.59
2024-04-17T15:38:52.856Z,9.54
2024-04-17T15:41:21.495Z,9.48
2024-04-17T15:43:49.570Z,9.52
2024-04-17T15:46:18.246Z,9.53
2024-04-17T15:48:46.630Z,9.50
2024-04-17T15:51:16.084Z,9.47
2024-04-17T15:53:46.314Z,9.43
2024-04-17T15:56:23.880Z,9.41
2024-04-17T15:58:52.626Z,9.42
2024-04-17T16:01:20.847Z,9.45
2024-04-17T16:03:50.731Z,9.45
2024-04-17T16:06:25.189Z,9.49
2024-04-17T16:08:53.761Z,9.47
2024-04-17T16:11:22.668Z,9.43
2024-04-17T16:13:50.563Z,9.43
2024-04-17T16:16:21.093Z,9.40
2024-04-17T16:18:48.583Z,9.33
2024-04-17T16:21:18.493Z,9.25
2024-04-17T16:23:46.197Z,9.20
2024-04-17T16:26:17.851Z,9.18
2024-04-17T16:28:47.576Z,9.16
2024-04-17T16:31:20.321Z,9.13
2024-04-17T16:33:49.895Z,9.11
2024-04-17T16:36:17.954Z,9.07
2024-04-17T16:38:46.892Z,9.05
2024-04-17T16:41:17.263Z,9.02
2024-04-17T16:43:44.766Z,8.98
2024-04-17T16:46:15.569Z,8.93
2024-04-17T16:48:43.509Z,8.88
2024-04-17T16:51:14.560Z,8.84
2024-04-17T16:53:42.028Z,8.76
2024-04-17T16:56:09.665Z,8.75
2024-04-17T16:58:39.450Z,8.73
2024-04-17T17:01:09.633Z,8.72
2024-04-17T17:03:37.811Z,8.72
2024-04-17T17:06:07.547Z,8.68
2024-04-17T17:08:35.378Z,8.66
2024-04-17T17:11:02.855Z,8.67
2024-04-17T17:13:30.609Z,8.67
2024-04-17T17:16:08.064Z,8.67
2024-04-17T17:18:36.151Z,8.68
2024-04-17T17:21:10.134Z,8.63
2024-04-17T17:23:38.174Z,8.59
2024-04-17T17:26:13.352Z,8.54
2024-04-17T17:28:42.675Z,8.54
2024-04-17T17:31:10.117Z,8.52
2024-04-17T17:33:38.444Z,8.51
2024-04-17T17:36:06.698Z,8.52
2024-04-17T17:38:40.220Z,8.50
2024-04-17T17:41:21.522Z,8.43
2024-04-17T17:43:50.517Z,8.38
2024-04-17T17:46:19.908Z,8.36
2024-04-17T17:48:50.776Z,8.31
2024-04-17T17:51:19.024Z,8.28
2024-04-17T17:53:46.710Z,8.27
2024-04-17T17:56:16.119Z,8.28
2024-04-17T17:58:47.621Z,8.25
2024-04-17T18:01:19.869Z,8.22
2024-04-17T18:03:51.602Z,8.19
2024-04-17T18:06:19.765Z,8.16
2024-04-17T18:08:47.373Z,8.13
2024-04-17T18:11:16.299Z,8.07
2024-04-17T18:13:44.276Z,8.03
2024-04-17T18:16:19.517Z,8.01
2024-04-17T18:18:55.373Z,7.99
2024-04-17T18:21:23.101Z,7.97
2024-04-17T18:23:50.603Z,7.95
2024-04-17T18:26:22.193Z,7.93
2024-04-17T18:28:51.628Z,7.87
2024-04-17T18:31:19.958Z,7.80
2024-04-17T18:33:51.411Z,7.76
2024-04-17T18:36:23.831Z,7.74
2024-04-17T18:38:52.738Z,7.73
2024-04-17T18:41:25.260Z,7.69
2024-04-17T18:43:56.031Z,7.63
2024-04-17T18:46:27.423Z,7.59
2024-04-17T18:48:56.701Z,7.57
2024-04-17T18:51:24.915Z,7.55
2024-04-17T18:53:53.679Z,7.54
2024-04-17T18:56:22.699Z,7.50
2024-04-17T18:58:50.252Z,7.48
2024-04-17T19:01:18.568Z,7.46
2024-04-17T19:03:46.847Z,7.44
2024-04-17T19:06:17.853Z,7.45
2024-04-17T19:08:46.789Z,7.44
2024-04-17T19:11:14.743Z,7.41
2024-04-17T19:13:42.843Z,7.40
2024-04-17T19:16:16.393Z,7.38
2024-04-17T19:18:46.033Z,7.36
2024-04-17T19:21:18.387Z,7.36
2024-04-17T19:23:47.209Z,7.35
2024-04-17T19:26:14.770Z,7.34
2024-04-17T19:28:44.636Z,7.31
2024-04-17T19:31:12.944Z,7.29
2024-04-17T19:33:50.126Z,7.25
2024-04-17T19:36:23.823Z,7.24
2024-04-17T19:38:53.046Z,7.22
2024-04-17T19:41:24.155Z,7.23
2024-04-17T19:43:56.894Z,7.23
2024-04-17T19:46:25.954Z,7.22
2024-04-17T19:48:53.585Z,7.19
2024-04-17T19:51:22.447Z,7.16
2024-04-17T19:53:49.930Z,7.11
2024-04-17T19:56:19.229Z,7.09
2024-04-17T19:58:47.510Z,7.08
2024-04-17T20:01:16.131Z,7.06
2024-04-17T20:03:44.691Z,7.06
2024-04-17T20:06:13.839Z,7.03
2024-04-17T20:08:43.286Z,7.02
2024-04-17T20:11:11.893Z,7.01
2024-04-17T20:13:42.107Z,7.01
2024-04-17T20:16:10.388Z,6.99
2024-04-17T20:18:39.712Z,6.98
2024-04-17T20:21:10.296Z,6.96
2024-04-17T20:23:39.639Z,6.94
2024-04-17T20:26:10.137Z,6.93
2024-04-17T20:28:45.036Z,6.89
2024-04-17T20:31:22.020Z,6.87
2024-04-17T20:33:49.653Z,6.87
2024-04-17T20:36:19.504Z,6.83
2024-04-17T20:38:47.405Z,6.81
2024-04-17T20:41:15.001Z,6.78
2024-04-17T20:43:42.847Z,6.77
2024-04-17T20:46:17.483Z,6.75
2024-04-17T20:48:47.682Z,6.72
2024-04-17T20:51:15.400Z,6.72
2024-04-17T20:53:45.666Z,6.69
2024-04-17T20:56:13.452Z,6.67
2024-04-17T20:58:41.009Z,6.66
2024-04-17T21:01:10.299Z,6.64
2024-04-17T21:03:38.466Z,6.63
2024-04-17T21:06:12.583Z,6.62
2024-04-17T21:08:43.300Z,6.60
2024-04-17T21:11:12.617Z,6.59
2024-04-17T21:13:40.600Z,6.56
2024-04-17T21:16:18.579Z,6.54
2024-04-17T21:18:47.979Z,6.52
2024-04-17T21:21:15.622Z,6.50
2024-04-17T21:23:43.482Z,6.50
2024-04-17T21:26:18.128Z,6.50
2024-04-17T21:28:48.133Z,6.49
2024-04-17T21:31:20.305Z,6.47
2024-04-17T21:33:49.602Z,6.44
2024-04-17T21:36:17.858Z,6.42
2024-04-17T21:38:45.651Z,6.41
2024-04-17T21:41:13.448Z,6.40
2024-04-17T21:43:41.195Z,6.38
2024-04-17T21:46:10.231Z,6.38
2024-04-17T21:48:38.197Z,6.36
2024-04-17T21:51:07.086Z,6.37
2024-04-17T21:53:36.697Z,6.36
2024-04-17T21:56:06.267Z,6.36
2024-04-17T21:58:33.967Z,6.36
2024-04-17T22:01:02.100Z,6.36
2024-04-17T22:03:31.407Z,6.37
2024-04-17T22:06:06.381Z,6.36
2024-04-17T22:08:34.970Z,6.35
2024-04-17T22:11:02.922Z,6.35
2024-04-17T22:13:30.974Z,6.32
2024-04-17T22:15:59.931Z,6.31
2024-04-17T22:18:27.599Z,6.31
2024-04-17T22:20:55.139Z,6.30
2024-04-17T22:23:22.679Z,6.30
2024-04-17T22:25:50.484Z,6.28
2024-04-17T22:28:17.988Z,6.27
2024-04-17T22:30:45.528Z,6.28
2024-04-17T22:33:13.112Z,6.25
2024-04-17T22:35:40.609Z,6.24
2024-04-17T22:38:08.086Z,6.24
2024-04-17T22:40:35.474Z,6.23
2024-04-17T22:43:02.969Z,6.21
2024-04-17T22:45:30.541Z,6.21
2024-04-17T22:47:58.167Z,6.18
2024-04-17T22:50:25.630Z,6.15
2024-04-17T22:52:53.099Z,6.14
2024-04-17T22:55:20.571Z,6.14
2024-04-17T22:57:48.098Z,6.13
2024-04-17T23:00:15.947Z,6.14
2024-04-17T23:02:43.382Z,6.15
2024-04-17T23:05:10.792Z,6.15
2024-04-17T23:07:38.268Z,6.13
2024-04-17T23:10:05.790Z,6.13
2024-04-17T23:12:33.624Z,6.11
2024-04-17T23:15:01.153Z,6.09
2024-04-17T23:17:28.799Z,6.08
2024-04-17T23:19:56.176Z,6.05
2024-04-17T23:22:23.922Z,6.04
2024-04-17T23:24:51.400Z,6.02
2024-04-17T23:27:18.814Z,5.99
2024-04-17T23:29:46.293Z,5.97
2024-04-17T23:32:15.185Z,5.94
2024-04-17T23:34:42.789Z,5.92
2024-04-17T23:37:10.212Z,5.90
2024-04-17T23:39:40.788Z,5.86
2024-04-17T23:42:08.336Z,5.85
2024-04-17T23:44:35.847Z,5.84
2024-04-17T23:47:03.386Z,5.85
2024-04-17T23:49:30.847Z,5.86
2024-04-17T23:51:58.777Z,5.85
2024-04-17T23:54:26.597Z,5.86
2024-04-17T23:56:53.956Z,5.84
2024-04-17T23:59:21.459Z,5.84
